BEL6YD EBBR-LGRP
Flight info
| Callsign | BEL6YD |
|---|---|
| Flight time | N/A |
| Altitude | 37000 |
| Route | Y863 DCT OGLOR DCT VIBOM DCT NOMBO DCT RIDAR DCT RADIZ DCT LUMUS DCT DOL DCT NIVES DCT MONID DCT ETOBI DCT IDASI DCT EDALA DCT NILKU DCT AKIKA DCT ENFAR DCT TALAS UN130 TSL DCT KOROS DCT MES UN139 LURUS UL995 CODIC |
| Aircraft | A20N/M-DE3FGHIJ1LORVWY/HB1G1 |
Departure
| Time | N/A |
|---|---|
| Airport | Brussels Airport (EBBR) |
Arrival
| Time | 2026-04-27 14:29 |
|---|---|
| Airport | Rhodes International Airport "Diagoras" (LGRP) |
| Time | Latitude | Longitude | Altitude | Speed | Heading |
|---|---|---|---|---|---|
| 2026-04-27 11:28 | 50.37849 | 6.14525 | 27279 ft | 447 kts | 120° |
| 2026-04-27 11:28 | 50.36363 | 6.18938 | 27641 ft | 450 kts | 119° |
| 2026-04-27 11:28 | 50.34909 | 6.23247 | 27993 ft | 452 kts | 119° |
| 2026-04-27 11:28 | 50.33428 | 6.27630 | 28333 ft | 455 kts | 120° |
| 2026-04-27 11:29 | 50.31959 | 6.31969 | 28665 ft | 458 kts | 119° |
| 2026-04-27 11:29 | 50.30462 | 6.36390 | 28983 ft | 460 kts | 120° |
| 2026-04-27 11:29 | 50.28957 | 6.40825 | 29294 ft | 463 kts | 119° |
| 2026-04-27 11:29 | 50.27452 | 6.45256 | 29597 ft | 465 kts | 119° |
| 2026-04-27 11:30 | 50.25912 | 6.49775 | 29891 ft | 468 kts | 119° |
| 2026-04-27 11:30 | 50.24393 | 6.54225 | 30192 ft | 470 kts | 120° |
| 2026-04-27 11:30 | 50.22842 | 6.58753 | 30550 ft | 471 kts | 120° |
| 2026-04-27 11:30 | 50.21310 | 6.63278 | 30950 ft | 471 kts | 118° |
| 2026-04-27 11:31 | 50.19918 | 6.67875 | 31360 ft | 470 kts | 116° |
| 2026-04-27 11:31 | 50.18610 | 6.72508 | 31778 ft | 469 kts | 115° |
| 2026-04-27 11:31 | 50.17325 | 6.77102 | 32135 ft | 468 kts | 115° |
| 2026-04-27 11:31 | 50.16070 | 6.81577 | 32449 ft | 468 kts | 115° |
| 2026-04-27 11:32 | 50.14794 | 6.86105 | 32772 ft | 468 kts | 115° |
| 2026-04-27 11:32 | 50.13491 | 6.90716 | 33103 ft | 467 kts | 116° |
| 2026-04-27 11:32 | 50.12165 | 6.95391 | 33437 ft | 467 kts | 116° |
| 2026-04-27 11:32 | 50.10854 | 7.00000 | 33744 ft | 466 kts | 116° |
| 2026-04-27 11:33 | 50.09546 | 7.04588 | 34024 ft | 466 kts | 116° |
| 2026-04-27 11:33 | 50.08221 | 7.09224 | 34273 ft | 467 kts | 116° |
| 2026-04-27 11:33 | 50.06910 | 7.13804 | 34543 ft | 466 kts | 116° |
| 2026-04-27 11:33 | 50.05599 | 7.18370 | 34817 ft | 466 kts | 116° |
| 2026-04-27 11:34 | 50.04283 | 7.22947 | 35064 ft | 465 kts | 116° |
| 2026-04-27 11:34 | 50.02953 | 7.27568 | 35289 ft | 464 kts | 115° |
| 2026-04-27 11:34 | 50.01649 | 7.32086 | 35512 ft | 463 kts | 116° |
| 2026-04-27 11:34 | 50.00325 | 7.36665 | 35719 ft | 463 kts | 115° |
| 2026-04-27 11:35 | 49.99008 | 7.41213 | 35941 ft | 462 kts | 115° |
| 2026-04-27 11:35 | 49.97705 | 7.45705 | 36150 ft | 461 kts | 115° |
| 2026-04-27 11:35 | 49.96384 | 7.50244 | 36314 ft | 462 kts | 115° |
| 2026-04-27 11:35 | 49.95060 | 7.54787 | 36444 ft | 463 kts | 115° |
| 2026-04-27 11:36 | 49.93734 | 7.59334 | 36588 ft | 463 kts | 115° |
| 2026-04-27 11:36 | 49.92410 | 7.63863 | 36728 ft | 464 kts | 115° |
| 2026-04-27 11:36 | 49.91083 | 7.68400 | 36893 ft | 464 kts | 116° |
| 2026-04-27 11:36 | 49.89756 | 7.72935 | 37048 ft | 464 kts | 116° |
| 2026-04-27 11:37 | 49.88417 | 7.77464 | 37185 ft | 465 kts | 116° |
| 2026-04-27 11:37 | 49.87052 | 7.82054 | 37186 ft | 465 kts | 116° |
| 2026-04-27 11:37 | 49.84349 | 7.91143 | 37191 ft | 465 kts | 116° |
| 2026-04-27 11:38 | 49.81679 | 8.00139 | 37192 ft | 465 kts | 116° |
| 2026-04-27 11:38 | 49.78966 | 8.09251 | 37187 ft | 466 kts | 116° |
| 2026-04-27 11:39 | 49.76253 | 8.18332 | 37188 ft | 465 kts | 116° |
| 2026-04-27 11:39 | 49.73606 | 8.27162 | 37194 ft | 465 kts | 116° |
| 2026-04-27 11:40 | 49.70868 | 8.36258 | 37193 ft | 466 kts | 116° |
| 2026-04-27 11:40 | 49.68158 | 8.45236 | 37191 ft | 466 kts | 116° |
| 2026-04-27 11:41 | 49.65424 | 8.54254 | 37195 ft | 466 kts | 115° |
| 2026-04-27 11:41 | 49.62685 | 8.63255 | 37197 ft | 466 kts | 115° |
| 2026-04-27 11:42 | 49.59945 | 8.72254 | 37199 ft | 466 kts | 116° |
| 2026-04-27 11:42 | 49.57222 | 8.81158 | 37199 ft | 466 kts | 116° |
| 2026-04-27 11:43 | 49.54435 | 8.90229 | 37199 ft | 465 kts | 116° |
| 2026-04-27 11:43 | 49.51666 | 8.99208 | 37196 ft | 465 kts | 116° |
| 2026-04-27 11:44 | 49.48880 | 9.08204 | 37190 ft | 465 kts | 116° |
| 2026-04-27 11:44 | 49.45931 | 9.16985 | 37188 ft | 464 kts | 122° |
| 2026-04-27 11:45 | 49.43032 | 9.23945 | 37188 ft | 464 kts | 124° |
| 2026-04-27 11:45 | 49.38879 | 9.33623 | 37187 ft | 464 kts | 124° |
| 2026-04-27 11:46 | 49.35341 | 9.41880 | 37185 ft | 465 kts | 124° |
| 2026-04-27 11:46 | 49.31786 | 9.50164 | 37189 ft | 464 kts | 124° |
| 2026-04-27 11:47 | 49.28239 | 9.58411 | 37191 ft | 464 kts | 124° |
| 2026-04-27 11:47 | 49.24691 | 9.66635 | 37196 ft | 464 kts | 124° |
| 2026-04-27 11:48 | 49.21196 | 9.74741 | 37198 ft | 464 kts | 124° |
| 2026-04-27 11:48 | 49.17641 | 9.82945 | 37197 ft | 464 kts | 124° |
| 2026-04-27 11:49 | 49.14040 | 9.91216 | 37196 ft | 464 kts | 124° |
| 2026-04-27 11:49 | 49.10467 | 9.99397 | 37200 ft | 465 kts | 124° |
| 2026-04-27 11:50 | 49.06757 | 10.07452 | 37199 ft | 463 kts | 129° |
| 2026-04-27 11:50 | 49.02499 | 10.14711 | 37188 ft | 462 kts | 136° |
| 2026-04-27 11:51 | 48.97915 | 10.21633 | 37181 ft | 463 kts | 136° |
| 2026-04-27 11:52 | 48.91085 | 10.31938 | 37166 ft | 463 kts | 136° |
| 2026-04-27 11:52 | 48.86555 | 10.38753 | 37160 ft | 463 kts | 136° |
| 2026-04-27 11:53 | 48.81942 | 10.45667 | 37162 ft | 463 kts | 136° |
| 2026-04-27 11:53 | 48.77529 | 10.52290 | 37156 ft | 463 kts | 136° |
| 2026-04-27 11:54 | 48.73024 | 10.59044 | 37153 ft | 463 kts | 136° |
| 2026-04-27 11:54 | 48.68464 | 10.65869 | 37158 ft | 463 kts | 136° |
| 2026-04-27 11:55 | 48.63911 | 10.72690 | 37163 ft | 463 kts | 136° |
| 2026-04-27 11:55 | 48.59495 | 10.79334 | 37166 ft | 463 kts | 134° |
| 2026-04-27 11:56 | 48.55308 | 10.86708 | 37172 ft | 463 kts | 129° |
| 2026-04-27 11:56 | 48.51253 | 10.94261 | 37176 ft | 464 kts | 129° |
| 2026-04-27 11:57 | 48.47203 | 11.01774 | 37174 ft | 463 kts | 129° |
| 2026-04-27 11:57 | 48.43123 | 11.09311 | 37179 ft | 462 kts | 129° |
| 2026-04-27 11:58 | 48.39040 | 11.16832 | 37178 ft | 462 kts | 129° |
| 2026-04-27 11:58 | 48.34976 | 11.24293 | 37172 ft | 461 kts | 129° |
| 2026-04-27 11:59 | 48.30917 | 11.31725 | 37165 ft | 462 kts | 129° |
| 2026-04-27 11:59 | 48.26832 | 11.39185 | 37169 ft | 462 kts | 129° |
| 2026-04-27 12:00 | 48.22772 | 11.46579 | 37159 ft | 462 kts | 129° |
| 2026-04-27 12:00 | 48.18686 | 11.53998 | 37161 ft | 462 kts | 129° |
| 2026-04-27 12:01 | 48.14582 | 11.61430 | 37153 ft | 462 kts | 129° |
| 2026-04-27 12:01 | 48.10504 | 11.68803 | 37156 ft | 461 kts | 129° |
| 2026-04-27 12:02 | 48.06511 | 11.76021 | 37156 ft | 460 kts | 129° |
| 2026-04-27 12:02 | 48.02457 | 11.83313 | 37159 ft | 460 kts | 129° |
| 2026-04-27 12:03 | 47.98364 | 11.90648 | 37161 ft | 459 kts | 129° |
| 2026-04-27 12:03 | 47.94261 | 11.97979 | 37170 ft | 460 kts | 129° |
| 2026-04-27 12:04 | 47.90172 | 12.05262 | 37170 ft | 459 kts | 129° |
| 2026-04-27 12:04 | 47.86136 | 12.12392 | 37175 ft | 459 kts | 129° |
| 2026-04-27 12:05 | 47.82017 | 12.19659 | 37172 ft | 460 kts | 129° |
| 2026-04-27 12:05 | 47.77913 | 12.26905 | 37176 ft | 460 kts | 129° |
| 2026-04-27 12:06 | 47.73905 | 12.33975 | 37180 ft | 459 kts | 129° |
| 2026-04-27 12:06 | 47.69784 | 12.41232 | 37181 ft | 460 kts | 129° |
| 2026-04-27 12:07 | 47.65638 | 12.48507 | 37177 ft | 460 kts | 129° |
| 2026-04-27 12:07 | 47.61445 | 12.55686 | 37180 ft | 460 kts | 131° |
| 2026-04-27 12:08 | 47.57125 | 12.62600 | 37179 ft | 460 kts | 131° |
| 2026-04-27 12:08 | 47.52860 | 12.69428 | 37186 ft | 459 kts | 132° |
| 2026-04-27 12:09 | 47.48644 | 12.76184 | 37198 ft | 459 kts | 132° |
| 2026-04-27 12:09 | 47.44316 | 12.83091 | 37195 ft | 459 kts | 132° |
| 2026-04-27 12:10 | 47.39999 | 12.89957 | 37197 ft | 459 kts | 132° |
| 2026-04-27 12:10 | 47.35633 | 12.96881 | 37198 ft | 459 kts | 132° |
| 2026-04-27 12:11 | 47.31284 | 13.03764 | 37202 ft | 459 kts | 132° |
| 2026-04-27 12:11 | 47.26948 | 13.10606 | 37198 ft | 458 kts | 132° |
| 2026-04-27 12:12 | 47.22583 | 13.17473 | 37198 ft | 459 kts | 132° |
| 2026-04-27 12:12 | 47.18249 | 13.24275 | 37191 ft | 459 kts | 132° |
| 2026-04-27 12:13 | 47.13860 | 13.31147 | 37190 ft | 459 kts | 132° |
| 2026-04-27 12:13 | 47.09499 | 13.37957 | 37188 ft | 459 kts | 132° |
| 2026-04-27 12:14 | 47.05129 | 13.44764 | 37183 ft | 458 kts | 132° |
| 2026-04-27 12:14 | 47.00750 | 13.51568 | 37176 ft | 458 kts | 132° |
| 2026-04-27 12:15 | 46.96392 | 13.58320 | 37174 ft | 457 kts | 132° |
| 2026-04-27 12:15 | 46.92070 | 13.65003 | 37181 ft | 458 kts | 132° |
| 2026-04-27 12:16 | 46.87702 | 13.71748 | 37188 ft | 458 kts | 133° |
| 2026-04-27 12:16 | 46.83551 | 13.78110 | 37186 ft | 458 kts | 133° |
| 2026-04-27 12:17 | 46.79255 | 13.84693 | 37187 ft | 458 kts | 133° |
| 2026-04-27 12:17 | 46.74971 | 13.91250 | 37186 ft | 457 kts | 133° |
| 2026-04-27 12:18 | 46.70626 | 13.97891 | 37184 ft | 457 kts | 133° |
| 2026-04-27 12:18 | 46.66267 | 14.04537 | 37175 ft | 457 kts | 133° |
| 2026-04-27 12:19 | 46.61856 | 14.11245 | 37172 ft | 457 kts | 133° |
| 2026-04-27 12:19 | 46.57273 | 14.17739 | 37172 ft | 457 kts | 139° |
| 2026-04-27 12:20 | 46.52436 | 14.23733 | 37177 ft | 458 kts | 139° |
| 2026-04-27 12:20 | 46.47561 | 14.29757 | 37182 ft | 458 kts | 139° |
| 2026-04-27 12:21 | 46.42736 | 14.35720 | 37181 ft | 458 kts | 139° |
| 2026-04-27 12:21 | 46.37889 | 14.41700 | 37176 ft | 458 kts | 139° |
| 2026-04-27 12:22 | 46.33029 | 14.47686 | 37174 ft | 457 kts | 139° |
| 2026-04-27 12:22 | 46.28180 | 14.53645 | 37167 ft | 457 kts | 139° |
| 2026-04-27 12:23 | 46.23321 | 14.59601 | 37165 ft | 457 kts | 139° |
| 2026-04-27 12:23 | 46.18500 | 14.65502 | 37165 ft | 457 kts | 139° |
| 2026-04-27 12:24 | 46.13660 | 14.71438 | 37159 ft | 457 kts | 139° |
| 2026-04-27 12:24 | 46.08781 | 14.77393 | 37154 ft | 458 kts | 138° |
| 2026-04-27 12:25 | 46.04084 | 14.83597 | 37151 ft | 458 kts | 136° |
| 2026-04-27 12:25 | 45.99438 | 14.89811 | 37143 ft | 458 kts | 136° |
| 2026-04-27 12:26 | 45.94756 | 14.96058 | 37141 ft | 458 kts | 136° |
| 2026-04-27 12:26 | 45.90085 | 15.02272 | 37138 ft | 457 kts | 136° |
| 2026-04-27 12:27 | 45.85419 | 15.08432 | 37144 ft | 457 kts | 136° |
| 2026-04-27 12:27 | 45.80718 | 15.14629 | 37149 ft | 457 kts | 136° |
| 2026-04-27 12:28 | 45.76070 | 15.20760 | 37146 ft | 457 kts | 136° |
| 2026-04-27 12:28 | 45.71361 | 15.26963 | 37141 ft | 457 kts | 136° |
| 2026-04-27 12:29 | 45.66715 | 15.33071 | 37146 ft | 457 kts | 136° |
| 2026-04-27 12:29 | 45.62021 | 15.39226 | 37150 ft | 456 kts | 136° |
| 2026-04-27 12:30 | 45.57350 | 15.45337 | 37145 ft | 456 kts | 136° |
| 2026-04-27 12:30 | 45.52670 | 15.51449 | 37142 ft | 456 kts | 136° |
| 2026-04-27 12:31 | 45.48009 | 15.57520 | 37143 ft | 456 kts | 136° |
| 2026-04-27 12:31 | 45.43326 | 15.63607 | 37141 ft | 456 kts | 136° |
| 2026-04-27 12:32 | 45.38644 | 15.69698 | 37145 ft | 456 kts | 137° |
| 2026-04-27 12:32 | 45.34145 | 15.75541 | 37147 ft | 456 kts | 137° |
| 2026-04-27 12:33 | 45.29445 | 15.81615 | 37148 ft | 456 kts | 137° |
| 2026-04-27 12:33 | 45.24724 | 15.87692 | 37151 ft | 456 kts | 137° |
| 2026-04-27 12:34 | 45.20231 | 15.94008 | 37154 ft | 455 kts | 131° |
| 2026-04-27 12:34 | 45.15994 | 16.00631 | 37158 ft | 455 kts | 130° |
| 2026-04-27 12:35 | 45.11742 | 16.07281 | 37157 ft | 455 kts | 131° |
| 2026-04-27 12:35 | 45.07493 | 16.13895 | 37158 ft | 455 kts | 131° |
| 2026-04-27 12:36 | 45.03248 | 16.20484 | 37148 ft | 455 kts | 131° |
| 2026-04-27 12:36 | 44.99017 | 16.27035 | 37139 ft | 455 kts | 131° |
| 2026-04-27 12:37 | 44.94791 | 16.33644 | 37135 ft | 455 kts | 129° |
| 2026-04-27 12:37 | 44.90645 | 16.40413 | 37141 ft | 455 kts | 129° |
| 2026-04-27 12:38 | 44.86566 | 16.47030 | 37144 ft | 455 kts | 129° |
| 2026-04-27 12:38 | 44.82406 | 16.53743 | 37145 ft | 455 kts | 129° |
| 2026-04-27 12:39 | 44.78285 | 16.60399 | 37143 ft | 455 kts | 129° |
| 2026-04-27 12:39 | 44.74121 | 16.67118 | 37142 ft | 455 kts | 130° |
| 2026-04-27 12:40 | 44.69978 | 16.73817 | 37143 ft | 455 kts | 130° |
| 2026-04-27 12:40 | 44.65911 | 16.80362 | 37144 ft | 455 kts | 130° |
| 2026-04-27 12:41 | 44.61731 | 16.87061 | 37156 ft | 455 kts | 130° |
| 2026-04-27 12:41 | 44.57563 | 16.93715 | 37152 ft | 455 kts | 130° |
| 2026-04-27 12:42 | 44.53394 | 17.00347 | 37154 ft | 455 kts | 130° |
| 2026-04-27 12:42 | 44.49226 | 17.06972 | 37168 ft | 455 kts | 130° |
| 2026-04-27 12:43 | 44.45031 | 17.13618 | 37165 ft | 456 kts | 131° |
| 2026-04-27 12:43 | 44.40831 | 17.20243 | 37168 ft | 456 kts | 131° |
| 2026-04-27 12:44 | 44.36652 | 17.26834 | 37171 ft | 456 kts | 131° |
| 2026-04-27 12:44 | 44.32464 | 17.33433 | 37169 ft | 456 kts | 131° |
| 2026-04-27 12:45 | 44.28247 | 17.40065 | 37166 ft | 455 kts | 131° |
| 2026-04-27 12:45 | 44.24045 | 17.46651 | 37165 ft | 456 kts | 131° |
| 2026-04-27 12:46 | 44.19683 | 17.53039 | 37162 ft | 455 kts | 134° |
| 2026-04-27 12:46 | 44.15241 | 17.59251 | 37155 ft | 455 kts | 134° |
| 2026-04-27 12:47 | 44.10795 | 17.65469 | 37157 ft | 455 kts | 135° |
| 2026-04-27 12:47 | 44.06346 | 17.71712 | 37167 ft | 455 kts | 135° |
| 2026-04-27 12:48 | 44.01905 | 17.77924 | 37173 ft | 455 kts | 135° |
| 2026-04-27 12:48 | 43.97424 | 17.84171 | 37164 ft | 456 kts | 135° |
| 2026-04-27 12:49 | 43.92977 | 17.90344 | 37156 ft | 455 kts | 135° |
| 2026-04-27 12:49 | 43.88499 | 17.96544 | 37155 ft | 455 kts | 136° |
| 2026-04-27 12:50 | 43.84003 | 18.02721 | 37157 ft | 455 kts | 136° |
| 2026-04-27 12:50 | 43.79522 | 18.08881 | 37157 ft | 456 kts | 135° |
| 2026-04-27 12:51 | 43.75033 | 18.15056 | 37165 ft | 456 kts | 136° |
| 2026-04-27 12:51 | 43.70536 | 18.21232 | 37167 ft | 457 kts | 136° |
| 2026-04-27 12:52 | 43.66059 | 18.27370 | 37171 ft | 456 kts | 136° |
| 2026-04-27 12:52 | 43.61536 | 18.33556 | 37166 ft | 456 kts | 136° |
| 2026-04-27 12:53 | 43.54797 | 18.42747 | 37162 ft | 456 kts | 136° |
| 2026-04-27 12:53 | 43.50297 | 18.48871 | 37165 ft | 457 kts | 136° |
| 2026-04-27 12:54 | 43.45795 | 18.54986 | 37169 ft | 456 kts | 136° |
| 2026-04-27 12:54 | 43.41276 | 18.61116 | 37172 ft | 457 kts | 136° |
| 2026-04-27 12:55 | 43.36727 | 18.67272 | 37180 ft | 457 kts | 137° |
| 2026-04-27 12:55 | 43.31998 | 18.73064 | 37192 ft | 455 kts | 142° |
| 2026-04-27 12:56 | 43.27084 | 18.78593 | 37191 ft | 456 kts | 143° |
| 2026-04-27 12:56 | 43.22192 | 18.84088 | 37191 ft | 456 kts | 142° |
| 2026-04-27 12:57 | 43.17305 | 18.89577 | 37190 ft | 457 kts | 143° |
| 2026-04-27 12:57 | 43.12384 | 18.95094 | 37197 ft | 457 kts | 143° |
| 2026-04-27 12:58 | 43.07478 | 19.00584 | 37190 ft | 456 kts | 143° |
| 2026-04-27 12:58 | 43.02568 | 19.06068 | 37193 ft | 456 kts | 143° |
| 2026-04-27 12:59 | 42.97674 | 19.11521 | 37194 ft | 456 kts | 143° |
| 2026-04-27 12:59 | 42.92739 | 19.17008 | 37201 ft | 456 kts | 143° |
| 2026-04-27 13:00 | 42.87858 | 19.22416 | 37195 ft | 456 kts | 143° |
| 2026-04-27 13:00 | 42.82913 | 19.27864 | 37192 ft | 457 kts | 143° |
| 2026-04-27 13:01 | 42.77987 | 19.33298 | 37185 ft | 457 kts | 143° |
| 2026-04-27 13:01 | 42.73060 | 19.38733 | 37186 ft | 456 kts | 143° |
| 2026-04-27 13:02 | 42.68113 | 19.44183 | 37182 ft | 456 kts | 143° |
| 2026-04-27 13:02 | 42.63195 | 19.49591 | 37181 ft | 456 kts | 143° |
| 2026-04-27 13:03 | 42.58295 | 19.54973 | 37182 ft | 456 kts | 142° |
| 2026-04-27 13:03 | 42.53362 | 19.60406 | 37182 ft | 457 kts | 141° |
| 2026-04-27 13:04 | 42.48635 | 19.66152 | 37183 ft | 457 kts | 140° |
| 2026-04-27 13:04 | 42.44127 | 19.71737 | 37179 ft | 456 kts | 140° |
| 2026-04-27 13:05 | 42.39412 | 19.77560 | 37180 ft | 456 kts | 140° |
| 2026-04-27 13:05 | 42.34699 | 19.83349 | 37178 ft | 455 kts | 140° |
| 2026-04-27 13:06 | 42.30028 | 19.89073 | 37169 ft | 455 kts | 140° |
| 2026-04-27 13:06 | 42.25366 | 19.94771 | 37163 ft | 456 kts | 140° |
| 2026-04-27 13:07 | 42.20656 | 20.00516 | 37144 ft | 456 kts | 140° |
| 2026-04-27 13:07 | 42.15959 | 20.06234 | 37141 ft | 456 kts | 140° |
| 2026-04-27 13:08 | 42.11237 | 20.11971 | 37144 ft | 456 kts | 140° |
| 2026-04-27 13:08 | 42.06544 | 20.17660 | 37146 ft | 456 kts | 140° |
| 2026-04-27 13:09 | 42.01837 | 20.23355 | 37149 ft | 456 kts | 140° |
| 2026-04-27 13:09 | 41.97138 | 20.29032 | 37146 ft | 456 kts | 140° |
| 2026-04-27 13:10 | 41.92427 | 20.34711 | 37145 ft | 456 kts | 140° |
| 2026-04-27 13:10 | 41.87784 | 20.40291 | 37156 ft | 456 kts | 140° |
| 2026-04-27 13:11 | 41.83042 | 20.45958 | 37156 ft | 455 kts | 140° |
| 2026-04-27 13:11 | 41.78447 | 20.51795 | 37156 ft | 457 kts | 134° |
| 2026-04-27 13:12 | 41.74386 | 20.58325 | 37160 ft | 458 kts | 126° |
| 2026-04-27 13:12 | 41.70869 | 20.65354 | 37160 ft | 458 kts | 124° |
| 2026-04-27 13:13 | 41.67382 | 20.72528 | 37156 ft | 458 kts | 124° |
| 2026-04-27 13:13 | 41.63895 | 20.79648 | 37160 ft | 459 kts | 124° |
| 2026-04-27 13:14 | 41.60390 | 20.86755 | 37163 ft | 460 kts | 124° |
| 2026-04-27 13:14 | 41.56870 | 20.93865 | 37155 ft | 459 kts | 124° |
| 2026-04-27 13:15 | 41.53371 | 21.00914 | 37158 ft | 459 kts | 124° |
| 2026-04-27 13:15 | 41.49841 | 21.08009 | 37162 ft | 459 kts | 124° |
| 2026-04-27 13:16 | 41.46320 | 21.15070 | 37163 ft | 459 kts | 124° |
| 2026-04-27 13:16 | 41.42796 | 21.22124 | 37158 ft | 459 kts | 124° |
| 2026-04-27 13:17 | 41.39260 | 21.29183 | 37161 ft | 459 kts | 124° |
| 2026-04-27 13:17 | 41.35718 | 21.36237 | 37160 ft | 459 kts | 124° |
| 2026-04-27 13:18 | 41.32172 | 21.43284 | 37163 ft | 459 kts | 124° |
| 2026-04-27 13:18 | 41.28613 | 21.50339 | 37168 ft | 459 kts | 124° |
| 2026-04-27 13:19 | 41.25057 | 21.57375 | 37168 ft | 460 kts | 124° |
| 2026-04-27 13:19 | 41.21498 | 21.64402 | 37168 ft | 460 kts | 124° |
| 2026-04-27 13:20 | 41.17936 | 21.71446 | 37162 ft | 460 kts | 125° |
| 2026-04-27 13:20 | 41.14383 | 21.78451 | 37171 ft | 459 kts | 125° |
| 2026-04-27 13:21 | 41.10808 | 21.85465 | 37172 ft | 460 kts | 125° |
| 2026-04-27 13:21 | 41.07201 | 21.92429 | 37168 ft | 459 kts | 128° |
| 2026-04-27 13:22 | 41.03362 | 21.99193 | 37170 ft | 459 kts | 128° |
| 2026-04-27 13:22 | 40.99538 | 22.05893 | 37164 ft | 460 kts | 128° |
| 2026-04-27 13:23 | 40.95692 | 22.12631 | 37168 ft | 460 kts | 128° |
| 2026-04-27 13:23 | 40.91841 | 22.19372 | 37166 ft | 460 kts | 128° |
| 2026-04-27 13:24 | 40.87994 | 22.26076 | 37167 ft | 460 kts | 128° |
| 2026-04-27 13:24 | 40.84181 | 22.32686 | 37168 ft | 460 kts | 128° |
| 2026-04-27 13:25 | 40.80317 | 22.39407 | 37167 ft | 460 kts | 128° |
| 2026-04-27 13:25 | 40.76437 | 22.46140 | 37161 ft | 460 kts | 128° |
| 2026-04-27 13:26 | 40.72584 | 22.52779 | 37164 ft | 460 kts | 128° |
| 2026-04-27 13:26 | 40.68692 | 22.59486 | 37165 ft | 460 kts | 128° |
| 2026-04-27 13:27 | 40.64864 | 22.66087 | 37164 ft | 460 kts | 129° |
| 2026-04-27 13:27 | 40.60993 | 22.72780 | 37169 ft | 460 kts | 129° |
| 2026-04-27 13:28 | 40.57113 | 22.79461 | 37171 ft | 460 kts | 129° |
| 2026-04-27 13:28 | 40.53241 | 22.86105 | 37177 ft | 460 kts | 129° |
| 2026-04-27 13:29 | 40.49348 | 22.92771 | 37180 ft | 460 kts | 129° |
| 2026-04-27 13:29 | 40.45432 | 22.99347 | 37173 ft | 459 kts | 131° |
| 2026-04-27 13:30 | 40.41191 | 23.05592 | 37171 ft | 458 kts | 133° |
| 2026-04-27 13:30 | 40.36909 | 23.11812 | 37176 ft | 459 kts | 133° |
| 2026-04-27 13:31 | 40.32644 | 23.18011 | 37176 ft | 458 kts | 133° |
| 2026-04-27 13:31 | 40.28402 | 23.24172 | 37177 ft | 458 kts | 133° |
| 2026-04-27 13:32 | 40.24137 | 23.30356 | 37182 ft | 458 kts | 133° |
| 2026-04-27 13:32 | 40.19888 | 23.36507 | 37173 ft | 458 kts | 133° |
| 2026-04-27 13:33 | 40.15608 | 23.42689 | 37184 ft | 458 kts | 133° |
| 2026-04-27 13:33 | 40.11324 | 23.48867 | 37178 ft | 458 kts | 133° |
| 2026-04-27 13:34 | 40.07054 | 23.55010 | 37183 ft | 457 kts | 133° |
| 2026-04-27 13:34 | 40.02786 | 23.61136 | 37178 ft | 457 kts | 133° |
| 2026-04-27 13:35 | 39.98506 | 23.67275 | 37181 ft | 457 kts | 134° |
| 2026-04-27 13:35 | 39.94245 | 23.73398 | 37184 ft | 457 kts | 134° |
| 2026-04-27 13:36 | 39.89996 | 23.79477 | 37186 ft | 456 kts | 134° |
| 2026-04-27 13:36 | 39.85690 | 23.85583 | 37183 ft | 456 kts | 134° |
| 2026-04-27 13:37 | 39.81437 | 23.91605 | 37180 ft | 455 kts | 134° |
| 2026-04-27 13:37 | 39.77142 | 23.97687 | 37180 ft | 456 kts | 134° |
| 2026-04-27 13:38 | 39.72885 | 24.03710 | 37187 ft | 456 kts | 134° |
| 2026-04-27 13:38 | 39.68592 | 24.09777 | 37186 ft | 456 kts | 134° |
| 2026-04-27 13:39 | 39.64320 | 24.15802 | 37180 ft | 455 kts | 134° |
| 2026-04-27 13:39 | 39.60039 | 24.21830 | 37183 ft | 454 kts | 134° |
| 2026-04-27 13:40 | 39.55783 | 24.27811 | 37185 ft | 454 kts | 134° |
| 2026-04-27 13:40 | 39.51500 | 24.33817 | 37178 ft | 454 kts | 134° |
| 2026-04-27 13:41 | 39.47232 | 24.39791 | 37172 ft | 454 kts | 134° |
| 2026-04-27 13:41 | 39.42939 | 24.45790 | 37169 ft | 454 kts | 134° |
| 2026-04-27 13:42 | 39.38663 | 24.51752 | 37171 ft | 454 kts | 134° |
| 2026-04-27 13:42 | 39.34384 | 24.57707 | 37164 ft | 454 kts | 134° |
| 2026-04-27 13:43 | 39.30083 | 24.63683 | 37156 ft | 454 kts | 134° |
| 2026-04-27 13:43 | 39.25812 | 24.69626 | 37153 ft | 454 kts | 134° |
| 2026-04-27 13:44 | 39.21531 | 24.75575 | 37140 ft | 454 kts | 134° |
| 2026-04-27 13:44 | 39.17232 | 24.81525 | 37137 ft | 454 kts | 134° |
| 2026-04-27 13:45 | 39.12929 | 24.87459 | 37124 ft | 453 kts | 134° |
| 2026-04-27 13:45 | 39.08543 | 24.93234 | 37122 ft | 452 kts | 139° |
| 2026-04-27 13:46 | 39.03923 | 24.98698 | 37118 ft | 452 kts | 139° |
| 2026-04-27 13:46 | 38.99303 | 25.04144 | 37109 ft | 453 kts | 139° |
| 2026-04-27 13:47 | 38.94654 | 25.09600 | 37102 ft | 452 kts | 142° |
| 2026-04-27 13:47 | 38.89608 | 25.14402 | 37091 ft | 451 kts | 146° |
| 2026-04-27 13:48 | 38.84501 | 25.19024 | 37095 ft | 451 kts | 146° |
| 2026-04-27 13:48 | 38.79406 | 25.23689 | 37092 ft | 451 kts | 146° |
| 2026-04-27 13:49 | 38.74321 | 25.28379 | 37080 ft | 451 kts | 146° |
| 2026-04-27 13:49 | 38.69251 | 25.33062 | 37086 ft | 451 kts | 145° |
| 2026-04-27 13:50 | 38.64173 | 25.37747 | 37077 ft | 451 kts | 145° |
| 2026-04-27 13:50 | 38.59094 | 25.42428 | 37084 ft | 451 kts | 145° |
| 2026-04-27 13:51 | 38.54000 | 25.47114 | 37076 ft | 451 kts | 145° |
| 2026-04-27 13:51 | 38.48946 | 25.51754 | 37075 ft | 450 kts | 145° |
| 2026-04-27 13:52 | 38.43851 | 25.56425 | 37073 ft | 450 kts | 145° |
| 2026-04-27 13:52 | 38.38757 | 25.61087 | 37072 ft | 451 kts | 145° |
| 2026-04-27 13:53 | 38.31155 | 25.68042 | 37059 ft | 451 kts | 146° |
| 2026-04-27 13:54 | 38.26080 | 25.72693 | 37065 ft | 450 kts | 146° |
| 2026-04-27 13:54 | 38.20996 | 25.77328 | 37064 ft | 450 kts | 146° |
| 2026-04-27 13:55 | 38.15919 | 25.81940 | 37055 ft | 450 kts | 146° |
| 2026-04-27 13:55 | 38.10811 | 25.86570 | 37055 ft | 450 kts | 146° |
| 2026-04-27 13:56 | 38.05739 | 25.91158 | 37050 ft | 450 kts | 146° |
| 2026-04-27 13:56 | 38.00655 | 25.95748 | 37040 ft | 450 kts | 146° |
| 2026-04-27 13:57 | 37.95552 | 26.00350 | 37043 ft | 450 kts | 146° |
| 2026-04-27 13:57 | 37.90461 | 26.04932 | 37042 ft | 450 kts | 146° |
| 2026-04-27 13:58 | 37.85341 | 26.09512 | 37033 ft | 449 kts | 146° |
| 2026-04-27 13:58 | 37.80260 | 26.14050 | 37029 ft | 449 kts | 146° |
| 2026-04-27 13:59 | 37.75145 | 26.18622 | 36734 ft | 449 kts | 146° |
| 2026-04-27 13:59 | 37.72628 | 26.20872 | 36439 ft | 446 kts | 146° |
| 2026-04-27 13:59 | 37.70101 | 26.23128 | 36153 ft | 443 kts | 146° |
| 2026-04-27 13:59 | 37.67594 | 26.25366 | 35879 ft | 441 kts | 146° |
| 2026-04-27 14:00 | 37.65108 | 26.27585 | 35470 ft | 441 kts | 146° |
| 2026-04-27 14:00 | 37.62574 | 26.29841 | 34952 ft | 442 kts | 145° |
| 2026-04-27 14:00 | 37.60072 | 26.32067 | 34394 ft | 444 kts | 145° |
| 2026-04-27 14:00 | 37.57539 | 26.34320 | 33769 ft | 446 kts | 145° |
| 2026-04-27 14:01 | 37.55024 | 26.36556 | 33156 ft | 446 kts | 145° |
| 2026-04-27 14:01 | 37.52480 | 26.38816 | 32522 ft | 448 kts | 145° |
| 2026-04-27 14:01 | 37.49958 | 26.41055 | 31888 ft | 449 kts | 145° |
| 2026-04-27 14:01 | 37.47399 | 26.43324 | 31245 ft | 449 kts | 145° |
| 2026-04-27 14:02 | 37.44863 | 26.45570 | 30593 ft | 450 kts | 145° |
| 2026-04-27 14:02 | 37.42298 | 26.47840 | 29910 ft | 451 kts | 145° |
| 2026-04-27 14:02 | 37.39741 | 26.50102 | 29212 ft | 452 kts | 145° |
| 2026-04-27 14:02 | 37.37174 | 26.52372 | 28665 ft | 448 kts | 145° |
| 2026-04-27 14:03 | 37.34654 | 26.54597 | 28203 ft | 443 kts | 145° |
| 2026-04-27 14:03 | 37.32163 | 26.56796 | 27734 ft | 439 kts | 145° |
| 2026-04-27 14:03 | 37.29669 | 26.58996 | 27259 ft | 435 kts | 145° |
| 2026-04-27 14:03 | 37.27205 | 26.61168 | 26782 ft | 431 kts | 145° |
| 2026-04-27 14:04 | 37.24782 | 26.63302 | 26308 ft | 428 kts | 145° |
| 2026-04-27 14:04 | 37.22332 | 26.65458 | 25813 ft | 425 kts | 146° |
| 2026-04-27 14:04 | 37.19923 | 26.67587 | 25343 ft | 422 kts | 145° |
| 2026-04-27 14:04 | 37.17538 | 26.69696 | 24864 ft | 420 kts | 146° |
| 2026-04-27 14:05 | 37.15183 | 26.71774 | 24404 ft | 417 kts | 146° |
| 2026-04-27 14:05 | 37.12799 | 26.73870 | 23930 ft | 414 kts | 146° |
| 2026-04-27 14:05 | 37.10471 | 26.75912 | 23469 ft | 412 kts | 146° |
| 2026-04-27 14:05 | 37.08126 | 26.77965 | 23012 ft | 409 kts | 146° |
| 2026-04-27 14:06 | 37.05796 | 26.80004 | 22563 ft | 406 kts | 145° |
| 2026-04-27 14:06 | 37.03485 | 26.82024 | 22113 ft | 404 kts | 145° |
| 2026-04-27 14:06 | 37.01200 | 26.84020 | 21670 ft | 401 kts | 145° |
| 2026-04-27 14:06 | 36.98936 | 26.85996 | 21238 ft | 399 kts | 145° |
| 2026-04-27 14:07 | 36.96677 | 26.87968 | 20797 ft | 396 kts | 145° |
| 2026-04-27 14:07 | 36.94407 | 26.89947 | 20384 ft | 392 kts | 145° |
| 2026-04-27 14:07 | 36.92176 | 26.91891 | 19976 ft | 389 kts | 145° |
| 2026-04-27 14:07 | 36.89993 | 26.93791 | 19554 ft | 387 kts | 145° |
| 2026-04-27 14:08 | 36.87771 | 26.95716 | 19121 ft | 384 kts | 145° |
| 2026-04-27 14:08 | 36.85585 | 26.97604 | 18723 ft | 381 kts | 145° |
| 2026-04-27 14:08 | 36.83409 | 26.99487 | 18313 ft | 378 kts | 144° |
| 2026-04-27 14:08 | 36.81273 | 27.01339 | 17895 ft | 376 kts | 144° |
| 2026-04-27 14:09 | 36.79142 | 27.03189 | 17480 ft | 374 kts | 144° |
| 2026-04-27 14:09 | 36.76989 | 27.05060 | 17053 ft | 372 kts | 144° |
| 2026-04-27 14:09 | 36.74902 | 27.06870 | 16643 ft | 370 kts | 144° |
| 2026-04-27 14:09 | 36.72790 | 27.08699 | 16238 ft | 367 kts | 144° |
| 2026-04-27 14:10 | 36.70701 | 27.10506 | 15842 ft | 364 kts | 144° |
| 2026-04-27 14:10 | 36.68713 | 27.12419 | 15458 ft | 361 kts | 135° |
| 2026-04-27 14:10 | 36.67128 | 27.14816 | 15045 ft | 357 kts | 121° |
| 2026-04-27 14:10 | 36.66006 | 27.17544 | 14670 ft | 353 kts | 112° |
| 2026-04-27 14:11 | 36.65032 | 27.20352 | 14277 ft | 351 kts | 112° |
| 2026-04-27 14:11 | 36.64085 | 27.23138 | 13880 ft | 349 kts | 112° |
| 2026-04-27 14:11 | 36.63147 | 27.25882 | 13495 ft | 347 kts | 112° |
| 2026-04-27 14:11 | 36.62196 | 27.28635 | 13090 ft | 344 kts | 112° |
| 2026-04-27 14:12 | 36.61247 | 27.31362 | 12713 ft | 342 kts | 112° |
| 2026-04-27 14:12 | 36.60312 | 27.34032 | 12336 ft | 340 kts | 112° |
| 2026-04-27 14:12 | 36.59362 | 27.36738 | 11947 ft | 338 kts | 112° |
| 2026-04-27 14:12 | 36.58432 | 27.39385 | 11561 ft | 335 kts | 112° |
| 2026-04-27 14:13 | 36.57501 | 27.42033 | 11169 ft | 333 kts | 112° |
| 2026-04-27 14:13 | 36.56574 | 27.44666 | 10792 ft | 331 kts | 112° |
| 2026-04-27 14:13 | 36.55666 | 27.47243 | 10413 ft | 328 kts | 112° |
| 2026-04-27 14:13 | 36.54754 | 27.49828 | 10124 ft | 321 kts | 112° |
| 2026-04-27 14:14 | 36.53880 | 27.52304 | 10060 ft | 306 kts | 112° |
| 2026-04-27 14:14 | 36.53037 | 27.54688 | 10007 ft | 292 kts | 112° |
| 2026-04-27 14:14 | 36.52244 | 27.56936 | 9827 ft | 285 kts | 112° |
| 2026-04-27 14:14 | 36.51456 | 27.59167 | 9499 ft | 283 kts | 112° |
| 2026-04-27 14:15 | 36.50666 | 27.61405 | 9188 ft | 281 kts | 112° |
| 2026-04-27 14:15 | 36.49884 | 27.63616 | 8884 ft | 278 kts | 112° |
| 2026-04-27 14:15 | 36.49104 | 27.65814 | 8580 ft | 277 kts | 112° |
| 2026-04-27 14:15 | 36.48338 | 27.67984 | 8264 ft | 275 kts | 112° |
| 2026-04-27 14:16 | 36.47567 | 27.70161 | 8070 ft | 278 kts | 112° |
| 2026-04-27 14:16 | 36.46827 | 27.72407 | 8002 ft | 282 kts | 108° |
| 2026-04-27 14:16 | 36.46305 | 27.74725 | 7980 ft | 282 kts | 100° |
| 2026-04-27 14:16 | 36.45959 | 27.77107 | 7959 ft | 282 kts | 98° |
| 2026-04-27 14:17 | 36.45643 | 27.79532 | 7958 ft | 282 kts | 98° |
| 2026-04-27 14:17 | 36.45334 | 27.81918 | 7953 ft | 282 kts | 98° |
| 2026-04-27 14:17 | 36.45016 | 27.84332 | 7954 ft | 282 kts | 98° |
| 2026-04-27 14:17 | 36.44697 | 27.86719 | 7958 ft | 282 kts | 98° |
| 2026-04-27 14:18 | 36.44374 | 27.89125 | 7953 ft | 282 kts | 98° |
| 2026-04-27 14:18 | 36.44102 | 27.91506 | 7932 ft | 281 kts | 94° |
| 2026-04-27 14:18 | 36.44010 | 27.93925 | 7949 ft | 281 kts | 88° |
| 2026-04-27 14:18 | 36.44038 | 27.96351 | 7961 ft | 281 kts | 88° |
| 2026-04-27 14:19 | 36.44082 | 27.98773 | 7958 ft | 281 kts | 87° |
| 2026-04-27 14:19 | 36.44128 | 28.01192 | 7960 ft | 280 kts | 88° |
| 2026-04-27 14:19 | 36.44170 | 28.03608 | 7960 ft | 280 kts | 88° |
| 2026-04-27 14:19 | 36.44210 | 28.06033 | 7959 ft | 281 kts | 88° |
| 2026-04-27 14:20 | 36.44250 | 28.08464 | 7958 ft | 281 kts | 88° |
| 2026-04-27 14:20 | 36.44288 | 28.10857 | 7950 ft | 275 kts | 88° |
| 2026-04-27 14:20 | 36.44322 | 28.13183 | 7946 ft | 259 kts | 88° |
| 2026-04-27 14:20 | 36.44353 | 28.15351 | 7942 ft | 244 kts | 88° |
| 2026-04-27 14:21 | 36.44384 | 28.17407 | 7947 ft | 241 kts | 88° |
| 2026-04-27 14:21 | 36.44414 | 28.19487 | 7949 ft | 241 kts | 87° |
| 2026-04-27 14:21 | 36.44421 | 28.20868 | 7949 ft | 241 kts | 92° |
| 2026-04-27 14:21 | 36.43575 | 28.23402 | 7950 ft | 239 kts | 126° |
| 2026-04-27 14:22 | 36.42704 | 28.25114 | 7637 ft | 239 kts | 106° |
| 2026-04-27 14:22 | 36.42547 | 28.27124 | 7433 ft | 229 kts | 83° |
| 2026-04-27 14:22 | 36.42801 | 28.29022 | 7223 ft | 224 kts | 70° |
| 2026-04-27 14:22 | 36.43621 | 28.30633 | 6857 ft | 223 kts | 41° |
| 2026-04-27 14:23 | 36.44982 | 28.31555 | 6485 ft | 224 kts | 13° |
| 2026-04-27 14:23 | 36.46505 | 28.31886 | 6137 ft | 225 kts | 7° |
| 2026-04-27 14:23 | 36.48089 | 28.32102 | 5726 ft | 228 kts | 5° |
| 2026-04-27 14:23 | 36.49669 | 28.32294 | 5240 ft | 230 kts | 5° |
| 2026-04-27 14:24 | 36.51247 | 28.32193 | 4725 ft | 231 kts | 340° |
| 2026-04-27 14:24 | 36.52568 | 28.31090 | 4223 ft | 231 kts | 308° |
| 2026-04-27 14:24 | 36.53181 | 28.29293 | 3771 ft | 229 kts | 275° |
| 2026-04-27 14:24 | 36.52900 | 28.27385 | 3368 ft | 225 kts | 241° |
| 2026-04-27 14:25 | 36.51891 | 28.25954 | 2990 ft | 220 kts | 222° |
| 2026-04-27 14:25 | 36.50734 | 28.24758 | 2671 ft | 213 kts | 220° |
| 2026-04-27 14:25 | 36.49605 | 28.23622 | 2472 ft | 202 kts | 220° |
| 2026-04-27 14:25 | 36.48528 | 28.22551 | 2279 ft | 193 kts | 220° |
| 2026-04-27 14:26 | 36.47520 | 28.21552 | 2041 ft | 180 kts | 220° |
| 2026-04-27 14:26 | 36.46596 | 28.20647 | 1973 ft | 160 kts | 220° |
| 2026-04-27 14:26 | 36.45729 | 28.19802 | 1868 ft | 152 kts | 220° |
| 2026-04-27 14:26 | 36.44929 | 28.19026 | 1612 ft | 144 kts | 220° |
| 2026-04-27 14:27 | 36.44190 | 28.18226 | 1296 ft | 138 kts | 228° |
| 2026-04-27 14:27 | 36.43572 | 28.17347 | 1042 ft | 134 kts | 235° |
| 2026-04-27 14:27 | 36.43053 | 28.16377 | 900 ft | 134 kts | 241° |
| 2026-04-27 14:27 | 36.42615 | 28.15364 | 815 ft | 134 kts | 246° |
| 2026-04-27 14:28 | 36.42240 | 28.14298 | 734 ft | 134 kts | 248° |
| 2026-04-27 14:28 | 36.41898 | 28.13232 | 596 ft | 134 kts | 250° |
| 2026-04-27 14:28 | 36.41577 | 28.12149 | 391 ft | 133 kts | 250° |
| 2026-04-27 14:28 | 36.41259 | 28.11071 | 187 ft | 130 kts | 249° |
| 2026-04-27 14:29 | 36.40954 | 28.10048 | 33 ft | 124 kts | 249° |
| 2026-04-27 14:29 | 36.40697 | 28.09171 | 28 ft | 83 kts | 249° |
| 2026-04-27 14:29 | 36.40556 | 28.08691 | 27 ft | 36 kts | 250° |
| 2026-04-27 14:29 | 36.40494 | 28.08621 | 27 ft | 7 kts | 133° |
| 2026-04-27 14:30 | 36.40467 | 28.08674 | 29 ft | 7 kts | 120° |
| 2026-04-27 14:30 | 36.40447 | 28.08726 | 31 ft | 7 kts | 115° |
| 2026-04-27 14:30 | 36.40429 | 28.08773 | 33 ft | 10 kts | 115° |
| 2026-04-27 14:30 | 36.40397 | 28.08907 | 34 ft | 9 kts | 95° |
| 2026-04-27 14:31 | 36.40398 | 28.08989 | 35 ft | 9 kts | 79° |
| 2026-04-27 14:31 | 36.40420 | 28.09079 | 35 ft | 11 kts | 71° |
| 2026-04-27 14:31 | 36.40447 | 28.09172 | 35 ft | 6 kts | 70° |
| 2026-04-27 14:31 | 36.40440 | 28.09212 | 35 ft | 5 kts | 148° |
| 2026-04-27 14:32 | 36.40416 | 28.09224 | 37 ft | 1 kts | 161° |
| 2026-04-27 14:32 | 36.40391 | 28.09235 | 39 ft | 2 kts | 160° |